Time;durP1;ratioP1;P1;durP2;ratioP2;P2;SDS_P1;SDS_P2;PMS_P1;PMS_P2;Temp;Humidity;BMP_temperature;BMP_pressure;BME280_temperature;BME280_humidity;BME280_pressure;Samples;Min_cycle;Max_cycle;Signal;HPM_P1;HPM_P2
2022/01/27 00:04:34;;;;;;;0.10;0.10;;;;;;;;;;5097973;28;20100;-84
2022/01/27 00:07:00;;;;;;;0.20;0.20;;;;;;;;;;5080733;28;20067;-84
2022/01/27 00:09:48;;;;;;;0.10;0.10;;;;;;;;;;5096022;28;20502;-84
2022/01/27 00:12:18;;;;;;;0.10;0.10;;;;;;;;;;5082479;28;20036;-85
2022/01/27 00:14:47;;;;;;;0.52;0.20;;;;;;;;;;5096770;28;20389;-85
2022/01/27 00:17:15;;;;;;;0.13;0.13;;;;;;;;;;5079492;28;20066;-85
2022/01/27 00:19:44;;;;;;;0.10;0.10;;;;;;;;;;5096384;28;20044;-85
2022/01/27 00:22:10;;;;;;;0.25;0.20;;;;;;;;;;5095979;28;20138;-85
2022/01/27 00:24:36;;;;;;;0.10;0.10;;;;;;;;;;5112811;28;20126;-85
2022/01/27 00:27:02;;;;;;;0.55;0.30;;;;;;;;;;5095725;28;20103;-85
2022/01/27 00:29:28;;;;;;;0.25;0.25;;;;;;;;;;5112638;28;20062;-84
2022/01/27 00:31:54;;;;;;;0.17;0.17;;;;;;;;;;5112472;28;20035;-85
2022/01/27 00:34:20;;;;;;;0.20;0.20;;;;;;;;;;5095733;28;20135;-85
2022/01/27 00:36:46;;;;;;;0.10;0.10;;;;;;;;;;5078662;28;20048;-85
2022/01/27 00:39:11;;;;;;;1.65;0.68;;;;;;;;;;5078682;28;20044;-84
2022/01/27 00:41:37;;;;;;;0.10;0.10;;;;;;;;;;5095511;28;20094;-84
2022/01/27 00:44:04;;;;;;;0.55;0.55;;;;;;;;;;5081789;27;20134;-85
2022/01/27 00:46:32;;;;;;;0.20;0.20;;;;;;;;;;5098873;27;20043;-85
2022/01/27 00:48:58;;;;;;;0.20;0.20;;;;;;;;;;5082028;27;20035;-85
2022/01/27 00:51:28;;;;;;;0.13;0.13;;;;;;;;;;5099060;27;20394;-85
2022/01/27 00:59:31;;;;;;;0.17;0.17;;;;;;;;;;5100307;27;20480;-85
2022/01/27 01:04:33;;;;;;;0.10;0.10;;;;;;;;;;5115352;27;20053;-84
2022/01/27 01:06:59;;;;;;;0.10;0.10;;;;;;;;;;5098293;27;20122;-84
2022/01/27 01:14:58;;;;;;;0.10;0.10;;;;;;;;;;5100996;27;20074;-85
2022/01/27 01:20:34;;;;;;;0.10;0.10;;;;;;;;;;5081578;27;20051;-85
2022/01/27 01:31:30;;;;;;;0.20;0.20;;;;;;;;;;5100817;27;20469;-85
2022/01/27 01:36:59;;;;;;;0.22;0.22;;;;;;;;;;5100469;27;20490;-86
2022/01/27 01:39:26;;;;;;;0.57;0.57;;;;;;;;;;5114782;27;20047;-86
2022/01/27 01:41:52;;;;;;;0.10;0.10;;;;;;;;;;5097944;27;20043;-86
2022/01/27 01:44:18;;;;;;;0.10;0.10;;;;;;;;;;5097618;27;20065;-86
2022/01/27 01:46:44;;;;;;;0.10;0.10;;;;;;;;;;5097720;28;20074;-85
2022/01/27 01:49:10;;;;;;;0.20;0.20;;;;;;;;;;5098237;27;20416;-85
2022/01/27 01:51:37;;;;;;;0.40;0.40;;;;;;;;;;5097869;27;20400;-85
2022/01/27 01:54:03;;;;;;;0.30;0.30;;;;;;;;;;5097405;27;20079;-85
2022/01/27 01:56:29;;;;;;;0.10;0.10;;;;;;;;;;5097686;27;20047;-85
2022/01/27 01:58:55;;;;;;;0.20;0.20;;;;;;;;;;5097962;27;20043;-85
2022/01/27 02:01:21;;;;;;;0.20;0.20;;;;;;;;;;5097639;27;20035;-84
2022/01/27 02:03:47;;;;;;;0.10;0.10;;;;;;;;;;5080683;28;20039;-85
2022/01/27 02:06:20;;;;;;;0.10;0.10;;;;;;;;;;5097665;28;20373;-85
2022/01/27 02:09:04;;;;;;;;;;;;;;;;;;5114313;28;20042;-86
2022/01/27 02:19:43;;;;;;;0.38;0.38;;;;;;;;;;5100179;28;20035;-85
2022/01/27 02:22:09;;;;;;;0.80;0.30;;;;;;;;;;5097481;28;20412;-85
2022/01/27 02:24:35;;;;;;;0.55;0.30;;;;;;;;;;5114166;28;20074;-85
2022/01/27 02:27:02;;;;;;;0.57;0.30;;;;;;;;;;5097125;28;20545;-86
2022/01/27 02:29:28;;;;;;;0.10;0.10;;;;;;;;;;5097351;28;20035;-85
2022/01/27 02:31:54;;;;;;;0.22;0.22;;;;;;;;;;5097198;28;20126;-85
2022/01/27 02:34:20;;;;;;;0.13;0.13;;;;;;;;;;5097257;28;20043;-85
2022/01/27 02:36:46;;;;;;;0.28;0.10;;;;;;;;;;5114315;28;20555;-85
2022/01/27 02:39:13;;;;;;;0.10;0.10;;;;;;;;;;5097429;28;20043;-85
2022/01/27 02:41:45;;;;;;;0.73;0.73;;;;;;;;;;5132523;28;20443;-85
2022/01/27 02:44:19;;;;;;;0.10;0.10;;;;;;;;;;5097141;28;20055;-85
2022/01/27 02:46:45;;;;;;;0.10;0.10;;;;;;;;;;5097143;28;20059;-85
2022/01/27 02:49:11;;;;;;;0.30;0.30;;;;;;;;;;5097226;28;20031;-85
2022/01/27 02:51:37;;;;;;;0.45;0.45;;;;;;;;;;5096982;28;20122;-85
2022/01/27 02:54:04;;;;;;;0.20;0.20;;;;;;;;;;5113988;28;20031;-85
2022/01/27 02:56:30;;;;;;;0.30;0.30;;;;;;;;;;5097348;28;20047;-85
2022/01/27 02:58:55;;;;;;;0.43;0.28;;;;;;;;;;5097157;28;20195;-85
2022/01/27 03:01:22;;;;;;;0.15;0.15;;;;;;;;;;5113862;28;20050;-84
2022/01/27 03:03:48;;;;;;;0.20;0.20;;;;;;;;;;5113720;28;20172;-85
2022/01/27 03:06:14;;;;;;;0.30;0.30;;;;;;;;;;5097097;28;20095;-85
2022/01/27 03:08:40;;;;;;;0.10;0.10;;;;;;;;;;5096935;28;20228;-85
2022/01/27 03:11:13;;;;;;;3.65;0.77;;;;;;;;;;5096864;28;20051;-85
2022/01/27 03:13:40;;;;;;;2.72;0.38;;;;;;;;;;5096932;28;20043;-85
2022/01/27 03:16:08;;;;;;;0.35;0.35;;;;;;;;;;5080068;28;20039;-86
2022/01/27 03:18:34;;;;;;;0.10;0.10;;;;;;;;;;5113805;28;20042;-84
2022/01/27 03:21:00;;;;;;;0.10;0.10;;;;;;;;;;5097661;27;20111;-85
2022/01/27 03:23:26;;;;;;;0.10;0.10;;;;;;;;;;5117498;27;20047;-84
2022/01/27 03:25:52;;;;;;;0.10;0.10;;;;;;;;;;5117487;27;20039;-84
2022/01/27 03:28:19;;;;;;;0.20;0.20;;;;;;;;;;5117447;27;20039;-84
2022/01/27 03:30:45;;;;;;;0.10;0.10;;;;;;;;;;5083565;27;20078;-85
2022/01/27 03:33:11;;;;;;;0.30;0.30;;;;;;;;;;5117134;27;20039;-85
2022/01/27 03:35:37;;;;;;;0.30;0.30;;;;;;;;;;5117154;27;20050;-86
2022/01/27 03:38:03;;;;;;;0.65;0.30;;;;;;;;;;5100056;27;20043;-86
2022/01/27 03:40:29;;;;;;;0.10;0.10;;;;;;;;;;5100413;27;20035;-86
2022/01/27 03:43:06;;;;;;;0.15;0.15;;;;;;;;;;5100165;27;20046;-86
2022/01/27 03:45:32;;;;;;;0.10;0.10;;;;;;;;;;5081124;28;20312;-86
2022/01/27 03:47:58;;;;;;;0.10;0.10;;;;;;;;;;5097020;28;20476;-85
2022/01/27 03:50:24;;;;;;;0.47;0.47;;;;;;;;;;5096409;28;20046;-86
2022/01/27 03:52:50;;;;;;;0.20;0.20;;;;;;;;;;5096425;28;20039;-86
2022/01/27 03:55:16;;;;;;;0.20;0.20;;;;;;;;;;5096344;28;20097;-86
2022/01/27 03:57:42;;;;;;;0.40;0.25;;;;;;;;;;5079680;28;20062;-86
2022/01/27 04:00:08;;;;;;;0.10;0.10;;;;;;;;;;5096337;28;20069;-86
2022/01/27 04:02:37;;;;;;;0.10;0.10;;;;;;;;;;5096027;28;20043;-86
2022/01/27 04:05:03;;;;;;;0.60;0.60;;;;;;;;;;5096819;28;20045;-86
2022/01/27 04:07:29;;;;;;;0.38;0.38;;;;;;;;;;5096289;28;20154;-86
2022/01/27 04:09:55;;;;;;;0.63;0.38;;;;;;;;;;5096140;28;20038;-86
2022/01/27 04:12:21;;;;;;;0.10;0.10;;;;;;;;;;5079187;28;20032;-86
2022/01/27 04:14:47;;;;;;;0.45;0.45;;;;;;;;;;5079421;28;20035;-86
2022/01/27 04:17:13;;;;;;;0.10;0.10;;;;;;;;;;5096078;28;20074;-86
2022/01/27 04:19:39;;;;;;;0.30;0.30;;;;;;;;;;5095855;28;20049;-86
2022/01/27 04:22:05;;;;;;;0.20;0.20;;;;;;;;;;5112908;28;20142;-86
2022/01/27 04:24:31;;;;;;;0.93;0.60;;;;;;;;;;5096199;28;20122;-87
2022/01/27 04:27:15;;;;;;;0.63;0.30;;;;;;;;;;5095761;28;20075;-85
2022/01/27 04:29:41;;;;;;;0.20;0.20;;;;;;;;;;5081536;28;20035;-85
2022/01/27 04:32:09;;;;;;;0.15;0.15;;;;;;;;;;5111931;28;20069;-85
2022/01/27 04:34:39;;;;;;;0.22;0.22;;;;;;;;;;5079264;28;20118;-84
2022/01/27 04:37:06;;;;;;;0.10;0.10;;;;;;;;;;5079192;28;20035;-85
2022/01/27 04:39:42;;;;;;;0.10;0.10;;;;;;;;;;5096132;28;20471;-86
2022/01/27 04:42:19;;;;;;;0.22;0.22;;;;;;;;;;5112453;28;20513;-85
2022/01/27 04:44:53;;;;;;;0.20;0.20;;;;;;;;;;5122302;27;20502;-85
2022/01/27 04:47:29;;;;;;;0.10;0.10;;;;;;;;;;5115752;27;20121;-84
2022/01/27 04:49:56;;;;;;;0.15;0.15;;;;;;;;;;5100432;27;20046;-85
2022/01/27 04:52:23;;;;;;;0.25;0.25;;;;;;;;;;5115829;27;20428;-85
2022/01/27 04:55:03;;;;;;;0.10;0.10;;;;;;;;;;5081736;27;20043;-85
2022/01/27 04:57:30;;;;;;;0.10;0.10;;;;;;;;;;5098839;27;20047;-86
2022/01/27 04:59:56;;;;;;;0.22;0.22;;;;;;;;;;5098397;27;20046;-85
2022/01/27 05:02:40;;;;;;;0.10;0.10;;;;;;;;;;5115843;27;20068;-85
2022/01/27 05:05:06;;;;;;;0.10;0.10;;;;;;;;;;5098631;27;20171;-85
2022/01/27 05:07:32;;;;;;;1.35;1.35;;;;;;;;;;5098448;27;20123;-86
2022/01/27 05:10:10;;;;;;;0.30;0.30;;;;;;;;;;5115423;27;20092;-85
2022/01/27 05:12:49;;;;;;;0.20;0.20;;;;;;;;;;5100137;27;20043;-85
2022/01/27 05:15:15;;;;;;;0.80;0.45;;;;;;;;;;5083200;27;20035;-85
2022/01/27 05:17:41;;;;;;;0.10;0.10;;;;;;;;;;5081473;27;20230;-86
2022/01/27 05:20:07;;;;;;;0.10;0.10;;;;;;;;;;5115518;27;20103;-86
2022/01/27 05:22:33;;;;;;;0.10;0.10;;;;;;;;;;5081165;27;20042;-85
2022/01/27 05:24:59;;;;;;;0.10;0.10;;;;;;;;;;5081304;27;20045;-86
2022/01/27 05:27:25;;;;;;;0.10;0.10;;;;;;;;;;5081215;27;20121;-86
2022/01/27 05:29:52;;;;;;;0.08;0.08;;;;;;;;;;5081395;27;20043;-85
2022/01/27 05:32:18;;;;;;;0.15;0.15;;;;;;;;;;5097964;27;20035;-85
2022/01/27 05:34:44;;;;;;;0.10;0.10;;;;;;;;;;5097827;27;20039;-85
2022/01/27 05:37:10;;;;;;;0.10;0.10;;;;;;;;;;5081174;27;20049;-85
2022/01/27 05:39:36;;;;;;;0.20;0.20;;;;;;;;;;5098370;27;20043;-85
2022/01/27 05:42:02;;;;;;;0.22;0.22;;;;;;;;;;5098219;27;20046;-85
2022/01/27 05:44:28;;;;;;;0.20;0.20;;;;;;;;;;5096836;27;20059;-85
2022/01/27 05:46:54;;;;;;;0.10;0.10;;;;;;;;;;5097620;27;20092;-85
2022/01/27 05:49:20;;;;;;;0.25;0.25;;;;;;;;;;5097804;27;20459;-85
2022/01/27 05:51:46;;;;;;;0.75;0.75;;;;;;;;;;5114696;27;20562;-85
2022/01/27 05:54:12;;;;;;;0.32;0.10;;;;;;;;;;5097893;27;20500;-86
2022/01/27 05:56:37;;;;;;;0.22;0.22;;;;;;;;;;5098243;27;20046;-84
2022/01/27 05:59:03;;;;;;;0.10;0.10;;;;;;;;;;5097910;28;20442;-85
2022/01/27 06:01:29;;;;;;;0.20;0.20;;;;;;;;;;5081284;28;20392;-85
2022/01/27 06:03:56;;;;;;;0.10;0.10;;;;;;;;;;5114404;27;20107;-85
2022/01/27 06:06:21;;;;;;;0.20;0.20;;;;;;;;;;5114377;28;20039;-85
2022/01/27 06:08:47;;;;;;;0.10;0.10;;;;;;;;;;5080831;28;20111;-85
2022/01/27 06:11:13;;;;;;;0.10;0.10;;;;;;;;;;5080896;28;20035;-84
2022/01/27 06:13:39;;;;;;;0.10;0.10;;;;;;;;;;5097976;28;20047;-84
2022/01/27 06:16:10;;;;;;;0.10;0.10;;;;;;;;;;5114447;28;20035;-84
2022/01/27 06:18:36;;;;;;;0.10;0.10;;;;;;;;;;5098250;28;20411;-84
2022/01/27 06:21:05;;;;;;;0.10;0.10;;;;;;;;;;5097540;28;20042;-84
2022/01/27 06:23:31;;;;;;;0.10;0.10;;;;;;;;;;5097553;28;20043;-85
2022/01/27 06:25:57;;;;;;;0.25;0.17;;;;;;;;;;5114572;28;20405;-83
2022/01/27 06:28:23;;;;;;;0.20;0.20;;;;;;;;;;5080580;28;20042;-85
2022/01/27 06:30:49;;;;;;;0.10;0.10;;;;;;;;;;5114378;28;20039;-85
2022/01/27 06:33:15;;;;;;;0.30;0.30;;;;;;;;;;5097398;28;20113;-84
2022/01/27 06:35:41;;;;;;;0.10;0.10;;;;;;;;;;5114473;28;20043;-84
2022/01/27 06:38:07;;;;;;;0.10;0.10;;;;;;;;;;5114674;28;20055;-85
2022/01/27 06:40:33;;;;;;;0.20;0.20;;;;;;;;;;5114278;28;20039;-85
2022/01/27 06:42:59;;;;;;;0.10;0.10;;;;;;;;;;5114263;28;20138;-84
2022/01/27 06:45:25;;;;;;;0.10;0.10;;;;;;;;;;5114129;28;20075;-84
2022/01/27 06:47:51;;;;;;;0.10;0.10;;;;;;;;;;5114151;28;20116;-84
2022/01/27 06:50:17;;;;;;;0.10;0.10;;;;;;;;;;5097278;28;20059;-84
2022/01/27 06:52:43;;;;;;;0.30;0.30;;;;;;;;;;5114450;28;20075;-84
2022/01/27 06:55:10;;;;;;;0.10;0.10;;;;;;;;;;5115216;27;20035;-85
2022/01/27 06:57:36;;;;;;;0.10;0.10;;;;;;;;;;5101406;27;20043;-85
2022/01/27 07:00:02;;;;;;;0.10;0.10;;;;;;;;;;5101003;27;20482;-84
2022/01/27 07:02:28;;;;;;;0.10;0.10;;;;;;;;;;5100956;27;20047;-84
2022/01/27 07:04:54;;;;;;;1.02;0.22;;;;;;;;;;5100887;27;20053;-85
2022/01/27 07:07:19;;;;;;;0.10;0.10;;;;;;;;;;5100782;27;20043;-84
2022/01/27 07:09:45;;;;;;;0.10;0.10;;;;;;;;;;5084109;27;20046;-84
2022/01/27 07:12:11;;;;;;;0.10;0.10;;;;;;;;;;5100988;27;20042;-84
2022/01/27 07:14:37;;;;;;;0.43;0.40;;;;;;;;;;5117694;27;20039;-84
2022/01/27 07:17:04;;;;;;;0.10;0.10;;;;;;;;;;5118009;27;20053;-84
2022/01/27 07:19:30;;;;;;;0.10;0.10;;;;;;;;;;5117565;27;20121;-84
2022/01/27 07:21:56;;;;;;;0.10;0.10;;;;;;;;;;5100780;27;20039;-83
2022/01/27 07:24:22;;;;;;;0.10;0.10;;;;;;;;;;5136058;27;20114;-84
2022/01/27 07:26:48;;;;;;;0.10;0.10;;;;;;;;;;5100519;27;20058;-84
2022/01/27 07:29:14;;;;;;;0.10;0.10;;;;;;;;;;5117380;27;20058;-84
2022/01/27 07:31:40;;;;;;;0.10;0.10;;;;;;;;;;5100381;27;20035;-84
2022/01/27 07:34:05;;;;;;;0.10;0.10;;;;;;;;;;5100226;27;20205;-84
2022/01/27 07:36:31;;;;;;;0.10;0.10;;;;;;;;;;5100485;27;20035;-84
2022/01/27 07:38:58;;;;;;;0.10;0.10;;;;;;;;;;5083644;27;20134;-85
2022/01/27 07:41:24;;;;;;;0.10;0.10;;;;;;;;;;5117153;27;20485;-84
2022/01/27 07:43:50;;;;;;;0.10;0.10;;;;;;;;;;5116546;27;20043;-84
2022/01/27 07:46:16;;;;;;;0.10;0.10;;;;;;;;;;5117149;27;20047;-85
2022/01/27 07:48:42;;;;;;;0.10;0.10;;;;;;;;;;5117039;27;20043;-84
2022/01/27 07:51:08;;;;;;;0.10;0.10;;;;;;;;;;5116884;27;20111;-84
2022/01/27 07:53:35;;;;;;;0.10;0.10;;;;;;;;;;5116842;27;20062;-84
2022/01/27 07:56:02;;;;;;;0.10;0.10;;;;;;;;;;5099755;27;20084;-85
2022/01/27 07:58:28;;;;;;;0.10;0.10;;;;;;;;;;5099939;27;20054;-84
2022/01/27 08:00:54;;;;;;;0.10;0.10;;;;;;;;;;5116791;27;20043;-85
2022/01/27 08:03:20;;;;;;;0.10;0.10;;;;;;;;;;5116667;27;20374;-85
2022/01/27 08:05:46;;;;;;;0.10;0.10;;;;;;;;;;5099947;27;20122;-84
2022/01/27 08:08:12;;;;;;;0.10;0.10;;;;;;;;;;5115777;27;20046;-84
2022/01/27 08:10:38;;;;;;;0.10;0.10;;;;;;;;;;5116690;27;20083;-85
2022/01/27 08:13:07;;;;;;;0.00;0.00;;;;;;;;;;5116374;27;20080;-84
2022/01/27 08:15:33;;;;;;;0.10;0.10;;;;;;;;;;5116399;27;20039;-84
2022/01/27 08:17:59;;;;;;;0.10;0.10;;;;;;;;;;5099828;27;20114;-84
2022/01/27 08:20:25;;;;;;;0.10;0.10;;;;;;;;;;5099373;27;20034;-84
2022/01/27 08:22:53;;;;;;;5.47;0.28;;;;;;;;;;5099234;27;20042;-83
2022/01/27 08:25:20;;;;;;;0.00;0.00;;;;;;;;;;5099611;27;20382;-84
2022/01/27 08:27:47;;;;;;;0.00;0.00;;;;;;;;;;5116337;27;20475;-84
2022/01/27 08:30:16;;;;;;;0.00;0.00;;;;;;;;;;5116672;27;20443;-83
2022/01/27 08:32:48;;;;;;;0.10;0.10;;;;;;;;;;5134532;27;20045;-84
2022/01/27 08:35:15;;;;;;;0.10;0.10;;;;;;;;;;5100432;27;20191;-85
2022/01/27 08:37:40;;;;;;;0.52;0.52;;;;;;;;;;5099270;27;20047;-84
2022/01/27 08:40:07;;;;;;;0.10;0.10;;;;;;;;;;5099268;27;20138;-84
2022/01/27 08:42:33;;;;;;;0.10;0.10;;;;;;;;;;5098947;27;20133;-84
2022/01/27 08:44:59;;;;;;;0.00;0.00;;;;;;;;;;5098977;27;20108;-84
2022/01/27 08:47:26;;;;;;;0.05;0.05;;;;;;;;;;5115669;27;20126;-86
2022/01/27 08:49:52;;;;;;;0.00;0.00;;;;;;;;;;5099043;27;20082;-85
2022/01/27 08:52:18;;;;;;;0.00;0.00;;;;;;;;;;5098755;27;20489;-84
2022/01/27 08:54:44;;;;;;;0.00;0.00;;;;;;;;;;5081961;27;20393;-85
2022/01/27 08:57:11;;;;;;;0.10;0.10;;;;;;;;;;5098688;27;20135;-84
2022/01/27 08:59:38;;;;;;;0.10;0.10;;;;;;;;;;5098903;27;20058;-85
2022/01/27 09:02:04;;;;;;;0.10;0.10;;;;;;;;;;5098450;27;20046;-83
2022/01/27 09:04:30;;;;;;;0.05;0.05;;;;;;;;;;5098394;27;20043;-83
2022/01/27 09:06:56;;;;;;;0.40;0.40;;;;;;;;;;5115356;27;20445;-83
2022/01/27 09:09:22;;;;;;;0.10;0.10;;;;;;;;;;5115106;27;20103;-84
2022/01/27 09:11:48;;;;;;;0.00;0.00;;;;;;;;;;5098016;27;20031;-83
2022/01/27 09:14:14;;;;;;;0.00;0.00;;;;;;;;;;5081014;27;20076;-83
2022/01/27 09:16:40;;;;;;;0.00;0.00;;;;;;;;;;5098005;27;20254;-84
2022/01/27 09:19:07;;;;;;;0.10;0.10;;;;;;;;;;5081079;27;20046;-84
2022/01/27 09:21:42;;;;;;;0.20;0.20;;;;;;;;;;5097961;27;20058;-83
2022/01/27 09:24:14;;;;;;;0.00;0.00;;;;;;;;;;5082304;27;20054;-83
2022/01/27 09:26:42;;;;;;;0.30;0.10;;;;;;;;;;5133093;27;20254;-83
2022/01/27 09:29:08;;;;;;;0.00;0.00;;;;;;;;;;5097786;27;20039;-82
2022/01/27 09:31:34;;;;;;;0.08;0.08;;;;;;;;;;5114922;27;20105;-82
2022/01/27 09:34:00;;;;;;;0.00;0.00;;;;;;;;;;5114629;27;20039;-83
2022/01/27 09:36:26;;;;;;;0.20;0.20;;;;;;;;;;5114488;27;20039;-82
2022/01/27 09:38:52;;;;;;;0.22;0.22;;;;;;;;;;5098024;27;20129;-82
2022/01/27 09:41:21;;;;;;;0.10;0.10;;;;;;;;;;5114757;27;20480;-81
2022/01/27 09:43:48;;;;;;;0.55;0.25;;;;;;;;;;5098009;27;20043;-83
2022/01/27 09:46:17;;;;;;;0.52;0.52;;;;;;;;;;5097777;27;20086;-83
2022/01/27 09:48:47;;;;;;;0.00;0.00;;;;;;;;;;5098129;27;20059;-82
2022/01/27 09:53:45;;;;;;;3.40;0.55;;;;;;;;;;5114446;27;20061;-82
2022/01/27 09:56:11;;;;;;;0.32;0.10;;;;;;;;;;5097600;28;20047;-83
2022/01/27 09:58:37;;;;;;;0.20;0.20;;;;;;;;;;5114571;27;20104;-82
2022/01/27 10:01:04;;;;;;;0.10;0.10;;;;;;;;;;5097714;27;20042;-82
2022/01/27 10:03:31;;;;;;;0.10;0.10;;;;;;;;;;5114060;28;20051;-83
2022/01/27 10:06:16;;;;;;;2.80;0.20;;;;;;;;;;5097278;27;20039;-82
2022/01/27 10:08:42;;;;;;;0.45;0.45;;;;;;;;;;5132756;27;20071;-82
2022/01/27 10:11:19;;;;;;;0.40;0.40;;;;;;;;;;5097535;28;20089;-83
2022/01/27 10:13:47;;;;;;;0.20;0.20;;;;;;;;;;5114150;28;20035;-83
2022/01/27 10:16:27;;;;;;;0.00;0.00;;;;;;;;;;5081058;28;20129;-83
2022/01/27 10:19:03;;;;;;;0.10;0.10;;;;;;;;;;5097290;28;20122;-82
2022/01/27 10:21:32;;;;;;;0.10;0.10;;;;;;;;;;5114283;28;20070;-84
2022/01/27 10:23:58;;;;;;;0.10;0.10;;;;;;;;;;5097628;28;20420;-82
2022/01/27 10:26:30;;;;;;;0.00;0.00;;;;;;;;;;5096928;28;20039;-82
2022/01/27 10:29:06;;;;;;;0.30;0.30;;;;;;;;;;5115513;28;20035;-83
2022/01/27 10:31:32;;;;;;;0.10;0.10;;;;;;;;;;5100578;27;20442;-82
2022/01/27 10:33:58;;;;;;;0.10;0.10;;;;;;;;;;5118125;27;20050;-82
2022/01/27 10:36:24;;;;;;;0.10;0.10;;;;;;;;;;5118626;27;20050;-83
2022/01/27 10:38:54;;;;;;;0.10;0.10;;;;;;;;;;5118301;27;20084;-83
2022/01/27 10:41:21;;;;;;;0.10;0.10;;;;;;;;;;5118238;27;20197;-84
2022/01/27 10:43:47;;;;;;;0.10;0.10;;;;;;;;;;5100754;27;20118;-82
2022/01/27 10:48:44;;;;;;;0.03;0.03;;;;;;;;;;5101307;27;20118;-82
2022/01/27 10:51:17;;;;;;;0.35;0.35;;;;;;;;;;5100869;27;20101;-83
2022/01/27 10:53:50;;;;;;;0.10;0.10;;;;;;;;;;5118755;27;20121;-82
2022/01/27 10:56:18;;;;;;;0.10;0.10;;;;;;;;;;5117932;27;20038;-83
2022/01/27 10:58:44;;;;;;;0.10;0.10;;;;;;;;;;5100734;27;20088;-84
2022/01/27 11:01:10;;;;;;;0.10;0.10;;;;;;;;;;5100797;27;20144;-84
2022/01/27 11:03:36;;;;;;;0.10;0.10;;;;;;;;;;5117616;27;20127;-83
2022/01/27 11:06:08;;;;;;;0.10;0.10;;;;;;;;;;5117554;27;20070;-83
2022/01/27 11:08:34;;;;;;;1.55;0.57;;;;;;;;;;5117739;27;20367;-83
2022/01/27 11:11:01;;;;;;;0.10;0.10;;;;;;;;;;5100525;27;20054;-84
2022/01/27 11:13:27;;;;;;;0.10;0.10;;;;;;;;;;5117895;27;20116;-84
2022/01/27 11:15:54;;;;;;;0.10;0.10;;;;;;;;;;5100960;27;20143;-83
2022/01/27 11:18:22;;;;;;;0.10;0.10;;;;;;;;;;5117022;27;20054;-83
2022/01/27 11:21:01;;;;;;;0.10;0.10;;;;;;;;;;5100252;27;20437;-83
2022/01/27 11:26:07;;;;;;;0.25;0.20;;;;;;;;;;5100709;27;20051;-83
2022/01/27 11:28:33;;;;;;;0.20;0.20;;;;;;;;;;5117222;27;20031;-84
2022/01/27 11:31:18;;;;;;;0.10;0.10;;;;;;;;;;5100176;27;20050;-83
2022/01/27 11:33:44;;;;;;;0.10;0.10;;;;;;;;;;5135615;27;20420;-83
2022/01/27 11:36:13;;;;;;;0.00;0.00;;;;;;;;;;5100037;27;20142;-82
2022/01/27 11:38:39;;;;;;;0.10;0.10;;;;;;;;;;5116982;27;20050;-82
2022/01/27 11:41:05;;;;;;;0.10;0.10;;;;;;;;;;5099604;28;20119;-83
2022/01/27 11:43:34;;;;;;;0.10;0.10;;;;;;;;;;5099200;27;20039;-83
2022/01/27 11:46:19;;;;;;;0.10;0.10;;;;;;;;;;5099606;27;20087;-82
2022/01/27 11:48:45;;;;;;;0.20;0.20;;;;;;;;;;5117082;27;20157;-83
2022/01/27 11:51:15;;;;;;;0.13;0.13;;;;;;;;;;5100110;27;20449;-84
2022/01/27 11:53:50;;;;;;;0.10;0.10;;;;;;;;;;5099850;27;20131;-83
2022/01/27 11:56:30;;;;;;;0.10;0.10;;;;;;;;;;5116842;27;20038;-83
2022/01/27 11:58:56;;;;;;;0.08;0.08;;;;;;;;;;5117077;27;20043;-83
2022/01/27 12:01:23;;;;;;;0.10;0.10;;;;;;;;;;5099885;27;20168;-83
2022/01/27 12:04:04;;;;;;;0.43;0.28;;;;;;;;;;5099972;27;20289;-84
2022/01/27 12:06:32;;;;;;;0.00;0.00;;;;;;;;;;5116191;27;20048;-82
2022/01/27 12:09:17;;;;;;;0.52;0.32;;;;;;;;;;5099813;27;20160;-82
2022/01/27 12:11:45;;;;;;;5.38;0.30;;;;;;;;;;5116275;27;20046;-83
2022/01/27 12:14:13;;;;;;;0.20;0.20;;;;;;;;;;5116297;27;20038;-83
2022/01/27 12:16:52;;;;;;;0.08;0.08;;;;;;;;;;5116461;27;20572;-83
2022/01/27 12:19:18;;;;;;;0.20;0.20;;;;;;;;;;5099453;27;20050;-82
2022/01/27 12:21:46;;;;;;;0.10;0.10;;;;;;;;;;5116207;27;20043;-83
2022/01/27 12:24:12;;;;;;;0.10;0.10;;;;;;;;;;5134747;27;20050;-83
2022/01/27 12:26:45;;;;;;;0.10;0.10;;;;;;;;;;5099135;27;20060;-83
2022/01/27 12:29:11;;;;;;;0.10;0.10;;;;;;;;;;5099024;27;20031;-85
2022/01/27 12:31:40;;;;;;;0.10;0.10;;;;;;;;;;5099487;27;20118;-85
2022/01/27 12:34:06;;;;;;;0.17;0.10;;;;;;;;;;5099499;27;20035;-82
2022/01/27 12:36:32;;;;;;;0.10;0.10;;;;;;;;;;5134255;27;20088;-82
2022/01/27 12:38:58;;;;;;;0.10;0.10;;;;;;;;;;5099078;27;20357;-82
2022/01/27 12:41:24;;;;;;;0.00;0.00;;;;;;;;;;5082350;27;20131;-82
2022/01/27 12:43:51;;;;;;;0.00;0.00;;;;;;;;;;5098812;27;20042;-83
2022/01/27 12:46:17;;;;;;;0.22;0.22;;;;;;;;;;5115767;27;20051;-86
2022/01/27 12:48:46;;;;;;;0.10;0.10;;;;;;;;;;5098976;27;20035;-87
2022/01/27 12:51:12;;;;;;;0.10;0.10;;;;;;;;;;5082419;27;20470;-85
2022/01/27 12:53:38;;;;;;;0.10;0.10;;;;;;;;;;5115581;27;20042;-85
2022/01/27 12:56:10;;;;;;;0.10;0.10;;;;;;;;;;5081962;27;20031;-84
2022/01/27 12:58:36;;;;;;;0.10;0.10;;;;;;;;;;5115591;27;20571;-85
2022/01/27 13:01:02;;;;;;;0.10;0.10;;;;;;;;;;5098807;27;20046;-85
2022/01/27 13:03:28;;;;;;;13.05;1.95;;;;;;;;;;5098773;27;20362;-86
2022/01/27 13:05:55;;;;;;;0.17;0.17;;;;;;;;;;5081636;27;20139;-86
2022/01/27 13:08:22;;;;;;;0.10;0.10;;;;;;;;;;5098542;27;20119;-85
2022/01/27 13:10:57;;;;;;;2.85;0.13;;;;;;;;;;5115446;27;20472;-84
2022/01/27 13:13:27;;;;;;;0.20;0.20;;;;;;;;;;5081872;27;20396;-85
2022/01/27 13:16:04;;;;;;;0.10;0.10;;;;;;;;;;5082109;27;20216;-84
2022/01/27 13:18:45;;;;;;;0.10;0.10;;;;;;;;;;5098751;27;20118;-84
2022/01/27 13:21:41;;;;;;;0.00;0.00;;;;;;;;;;5100412;27;20043;-85
2022/01/27 13:24:10;;;;;;;0.10;0.10;;;;;;;;;;5148020;27;20051;-85
2022/01/27 13:26:36;;;;;;;0.10;0.10;;;;;;;;;;5081535;27;20038;-85
2022/01/27 13:29:03;;;;;;;0.10;0.10;;;;;;;;;;5098029;27;20122;-84
2022/01/27 13:31:29;;;;;;;0.10;0.10;;;;;;;;;;5098351;27;20043;-85
2022/01/27 13:33:55;;;;;;;0.10;0.10;;;;;;;;;;5097844;27;20032;-85
2022/01/27 13:36:22;;;;;;;0.20;0.20;;;;;;;;;;5097916;27;20122;-85
2022/01/27 13:39:01;;;;;;;0.52;0.52;;;;;;;;;;5114738;27;20039;-85
2022/01/27 13:41:28;;;;;;;0.10;0.10;;;;;;;;;;5115065;27;20478;-85
2022/01/27 13:43:54;;;;;;;0.10;0.10;;;;;;;;;;5097617;27;20042;-85
2022/01/27 13:46:39;;;;;;;0.10;0.10;;;;;;;;;;5114575;27;20041;-85
2022/01/27 13:49:08;;;;;;;0.10;0.10;;;;;;;;;;5114664;28;20035;-85
2022/01/27 13:51:44;;;;;;;0.20;0.20;;;;;;;;;;5114593;27;20117;-84
2022/01/27 13:54:10;;;;;;;0.10;0.10;;;;;;;;;;5114528;27;20035;-85
2022/01/27 13:56:57;;;;;;;0.10;0.10;;;;;;;;;;5097360;27;20043;-85
2022/01/27 13:59:29;;;;;;;0.10;0.10;;;;;;;;;;5114305;27;20054;-85
2022/01/27 14:02:14;;;;;;;0.10;0.10;;;;;;;;;;5098457;27;20043;-84
2022/01/27 14:04:44;;;;;;;0.10;0.10;;;;;;;;;;5080035;28;20075;-85
2022/01/27 14:07:10;;;;;;;0.10;0.10;;;;;;;;;;5080432;27;20045;-85
2022/01/27 14:09:40;;;;;;;0.10;0.10;;;;;;;;;;5080692;28;20118;-84
2022/01/27 14:12:06;;;;;;;0.22;0.22;;;;;;;;;;5097622;28;20035;-85
2022/01/27 14:14:45;;;;;;;0.10;0.10;;;;;;;;;;5097960;28;20043;-85
2022/01/27 14:17:38;;;;;;;1.88;0.63;;;;;;;;;;5114637;28;20035;-85
2022/01/27 14:20:12;;;;;;;0.32;0.32;;;;;;;;;;5129699;27;20075;-85
2022/01/27 14:22:50;;;;;;;0.10;0.10;;;;;;;;;;5097512;28;20035;-85
2022/01/27 14:25:22;;;;;;;1.33;1.23;;;;;;;;;;5114491;28;20494;-92
2022/01/27 14:27:48;;;;;;;0.10;0.10;;;;;;;;;;5081586;28;20131;-87
2022/01/27 14:30:17;;;;;;;0.30;0.25;;;;;;;;;;5114150;28;20071;-87
2022/01/27 14:32:43;;;;;;;0.10;0.10;;;;;;;;;;5114512;28;20477;-86
2022/01/27 14:35:10;;;;;;;0.10;0.10;;;;;;;;;;5097204;28;20043;-87
2022/01/27 14:37:36;;;;;;;0.10;0.10;;;;;;;;;;5097394;28;20047;-86
2022/01/27 14:40:05;;;;;;;0.10;0.10;;;;;;;;;;5097384;28;20043;-86
2022/01/27 14:42:32;;;;;;;0.10;0.10;;;;;;;;;;5080451;28;20043;-85
2022/01/27 14:45:02;;;;;;;1.00;0.65;;;;;;;;;;5080337;28;20200;-91
2022/01/27 14:47:29;;;;;;;0.20;0.20;;;;;;;;;;5080073;28;20074;-86
2022/01/27 14:49:55;;;;;;;3.00;0.20;;;;;;;;;;5096934;28;20394;-86
2022/01/27 14:52:28;;;;;;;0.10;0.10;;;;;;;;;;5096740;28;20035;-87
2022/01/27 14:54:54;;;;;;;0.10;0.10;;;;;;;;;;5097645;28;20127;-85
2022/01/27 14:57:20;;;;;;;0.10;0.10;;;;;;;;;;5096855;28;20095;-85
2022/01/27 14:59:46;;;;;;;0.10;0.10;;;;;;;;;;5096734;28;20498;-86
2022/01/27 15:02:12;;;;;;;0.10;0.10;;;;;;;;;;5096759;28;20122;-86
2022/01/27 15:04:38;;;;;;;0.10;0.10;;;;;;;;;;5096901;28;20059;-86
2022/01/27 15:07:04;;;;;;;0.10;0.10;;;;;;;;;;5097185;28;20035;-87
2022/01/27 15:09:31;;;;;;;0.10;0.10;;;;;;;;;;5080154;28;20118;-89
2022/01/27 15:11:57;;;;;;;0.10;0.10;;;;;;;;;;5096613;27;20031;-88
2022/01/27 15:19:52;;;;;;;0.10;0.10;;;;;;;;;;5102625;27;20047;-87
2022/01/27 15:22:20;;;;;;;0.57;0.57;;;;;;;;;;5100381;27;20039;-87
2022/01/27 15:24:48;;;;;;;0.10;0.10;;;;;;;;;;5083362;27;20039;-87
2022/01/27 15:27:14;;;;;;;0.17;0.17;;;;;;;;;;5100584;27;20390;-88
2022/01/27 15:29:41;;;;;;;0.10;0.10;;;;;;;;;;5100634;27;20039;-88
2022/01/27 15:32:08;;;;;;;0.10;0.10;;;;;;;;;;5100346;27;20094;-87
2022/01/27 15:34:35;;;;;;;0.10;0.10;;;;;;;;;;5100078;27;20043;-87
2022/01/27 15:37:01;;;;;;;0.10;0.10;;;;;;;;;;5100086;27;20054;-88
2022/01/27 15:39:27;;;;;;;0.25;0.17;;;;;;;;;;5099956;27;20042;-88
2022/01/27 15:41:54;;;;;;;0.52;0.52;;;;;;;;;;5099826;27;20050;-90